Time;durP1;ratioP1;P1;durP2;ratioP2;P2;SDS_P1;SDS_P2;PMS_P1;PMS_P2;Temp;Humidity;BMP_temperature;BMP_pressure;BME280_temperature;BME280_humidity;BME280_pressure;Samples;Min_cycle;Max_cycle;Signal;HPM_P1;HPM_P2
2023/08/01 00:00:22;;;;;;;7.03;4.30;;;;;;;;;;5002727;28;21022;-77
2023/08/01 00:02:49;;;;;;;10.50;4.77;;;;;;;;;;4996603;28;20190;-76
2023/08/01 00:05:15;;;;;;;6.43;4.70;;;;;;;;;;5012414;28;20194;-76
2023/08/01 00:07:42;;;;;;;7.50;4.80;;;;;;;;;;5005354;28;20222;-76
2023/08/01 00:10:08;;;;;;;7.63;4.73;;;;;;;;;;5022135;28;20187;-76
2023/08/01 00:12:34;;;;;;;7.37;4.67;;;;;;;;;;5005094;28;20206;-77
2023/08/01 00:15:00;;;;;;;7.53;4.60;;;;;;;;;;5023746;28;20207;-77
2023/08/01 00:17:26;;;;;;;10.30;5.20;;;;;;;;;;4986076;28;20576;-77
2023/08/01 00:19:54;;;;;;;7.80;5.07;;;;;;;;;;5024454;28;20193;-77
2023/08/01 00:22:21;;;;;;;8.37;5.17;;;;;;;;;;5021273;28;20179;-77
2023/08/01 00:24:50;;;;;;;9.50;5.00;;;;;;;;;;5029661;28;20566;-77
2023/08/01 00:27:16;;;;;;;8.47;5.17;;;;;;;;;;5027542;28;20268;-77
2023/08/01 00:29:42;;;;;;;7.93;5.30;;;;;;;;;;5008118;28;20663;-77
2023/08/01 00:32:08;;;;;;;7.83;4.77;;;;;;;;;;5019299;28;20194;-76
2023/08/01 00:34:35;;;;;;;9.90;5.13;;;;;;;;;;4998403;28;20566;-77
2023/08/01 00:37:01;;;;;;;8.63;5.00;;;;;;;;;;4983389;28;20245;-77
2023/08/01 00:39:27;;;;;;;7.77;4.77;;;;;;;;;;5019345;28;20210;-75
2023/08/01 00:41:53;;;;;;;7.17;4.90;;;;;;;;;;5012099;28;20215;-77
2023/08/01 00:44:19;;;;;;;7.87;4.93;;;;;;;;;;4979701;28;20638;-77
2023/08/01 00:46:46;;;;;;;8.43;5.00;;;;;;;;;;5013158;28;20206;-77
2023/08/01 00:49:13;;;;;;;10.77;5.30;;;;;;;;;;4981277;28;20199;-77
2023/08/01 00:51:39;;;;;;;5.83;4.47;;;;;;;;;;5009451;28;20316;-77
2023/08/01 00:54:06;;;;;;;6.10;5.13;;;;;;;;;;5004712;28;20336;-77
2023/08/01 00:56:32;;;;;;;6.20;5.13;;;;;;;;;;5007833;28;20930;-77
2023/08/01 00:58:58;;;;;;;7.07;4.93;;;;;;;;;;4992724;28;20312;-77
2023/08/01 01:01:24;;;;;;;10.83;5.43;;;;;;;;;;5018000;28;20183;-75
2023/08/01 01:03:51;;;;;;;7.80;4.83;;;;;;;;;;5017758;28;20210;-76
2023/08/01 01:06:23;;;;;;;8.33;5.67;;;;;;;;;;5008009;28;20194;-77
2023/08/01 01:08:49;;;;;;;7.57;5.07;;;;;;;;;;5023263;28;20198;-77
2023/08/01 01:11:16;;;;;;;7.47;5.20;;;;;;;;;;5008508;28;20273;-77
2023/08/01 01:13:42;;;;;;;8.40;5.50;;;;;;;;;;5026916;28;20241;-77
2023/08/01 01:16:08;;;;;;;8.20;5.10;;;;;;;;;;5003930;28;20245;-78
2023/08/01 01:18:34;;;;;;;6.27;4.67;;;;;;;;;;5022258;28;20207;-77
2023/08/01 01:21:01;;;;;;;8.70;4.90;;;;;;;;;;5011187;28;20186;-77
2023/08/01 01:23:28;;;;;;;8.67;5.00;;;;;;;;;;5027070;28;20191;-77
2023/08/01 01:25:55;;;;;;;6.47;5.17;;;;;;;;;;4983718;28;20262;-77
2023/08/01 01:28:21;;;;;;;9.00;5.50;;;;;;;;;;5025964;28;20214;-77
2023/08/01 01:30:48;;;;;;;8.47;5.50;;;;;;;;;;5029029;28;20186;-77
2023/08/01 01:33:16;;;;;;;6.87;5.27;;;;;;;;;;5010703;28;20255;-77
2023/08/01 01:35:42;;;;;;;7.13;4.90;;;;;;;;;;5004853;28;20209;-77
2023/08/01 01:38:08;;;;;;;7.80;5.50;;;;;;;;;;4999264;28;20207;-77
2023/08/01 01:40:34;;;;;;;9.90;4.80;;;;;;;;;;4994499;28;20179;-77
2023/08/01 01:43:01;;;;;;;6.93;4.93;;;;;;;;;;5025352;28;20642;-78
2023/08/01 01:45:27;;;;;;;7.50;5.17;;;;;;;;;;4970648;28;20195;-77
2023/08/01 01:47:53;;;;;;;7.67;4.73;;;;;;;;;;5021598;28;20217;-77
2023/08/01 01:50:19;;;;;;;7.70;4.90;;;;;;;;;;5025724;28;20614;-80
2023/08/01 01:52:46;;;;;;;10.63;5.37;;;;;;;;;;5013753;28;20183;-78
2023/08/01 01:55:12;;;;;;;5.87;4.70;;;;;;;;;;5021075;28;20218;-77
2023/08/01 01:57:40;;;;;;;7.33;4.90;;;;;;;;;;4978593;28;20244;-77
2023/08/01 02:00:10;;;;;;;8.90;4.70;;;;;;;;;;5008624;28;20190;-76
2023/08/01 02:02:39;;;;;;;8.10;5.20;;;;;;;;;;5026085;28;20183;-77
2023/08/01 02:05:05;;;;;;;8.70;4.90;;;;;;;;;;5007497;28;20194;-77
2023/08/01 02:07:33;;;;;;;7.87;5.10;;;;;;;;;;4996607;28;20302;-76
2023/08/01 02:10:00;;;;;;;11.60;4.97;;;;;;;;;;4999566;28;20191;-76
2023/08/01 02:12:27;;;;;;;7.63;5.30;;;;;;;;;;5008625;28;20669;-76
2023/08/01 02:14:53;;;;;;;6.87;4.90;;;;;;;;;;5006320;28;20214;-77
2023/08/01 02:17:19;;;;;;;9.37;5.53;;;;;;;;;;5005630;28;20211;-76
2023/08/01 02:19:46;;;;;;;9.37;5.60;;;;;;;;;;5008948;28;20188;-77
2023/08/01 02:22:12;;;;;;;8.37;5.37;;;;;;;;;;5000784;28;20245;-77
2023/08/01 02:24:38;;;;;;;8.70;5.33;;;;;;;;;;5015102;28;20185;-77
2023/08/01 02:27:04;;;;;;;11.90;5.37;;;;;;;;;;5010546;28;20214;-77
2023/08/01 02:29:30;;;;;;;8.83;5.30;;;;;;;;;;4996989;28;20237;-77
2023/08/01 02:31:57;;;;;;;8.77;5.57;;;;;;;;;;5013754;28;20221;-76
2023/08/01 02:34:24;;;;;;;6.57;4.60;;;;;;;;;;5011796;28;20261;-77
2023/08/01 02:36:50;;;;;;;7.07;5.07;;;;;;;;;;5008814;28;20207;-77
2023/08/01 02:39:16;;;;;;;6.63;5.27;;;;;;;;;;4997584;28;20183;-77
2023/08/01 02:41:42;;;;;;;7.30;5.30;;;;;;;;;;5003051;28;20203;-77
2023/08/01 02:44:09;;;;;;;7.13;4.93;;;;;;;;;;4994033;28;20226;-77
2023/08/01 02:46:35;;;;;;;7.53;5.70;;;;;;;;;;5022643;28;20213;-77
2023/08/01 02:49:01;;;;;;;7.03;5.33;;;;;;;;;;5030049;28;20182;-77
2023/08/01 02:51:28;;;;;;;6.83;5.40;;;;;;;;;;4994913;28;20692;-77
2023/08/01 02:53:54;;;;;;;8.27;5.10;;;;;;;;;;5018583;28;20203;-77
2023/08/01 02:56:20;;;;;;;7.90;4.87;;;;;;;;;;4986654;28;20190;-76
2023/08/01 02:58:46;;;;;;;7.13;5.13;;;;;;;;;;4984638;28;20201;-77
2023/08/01 03:01:13;;;;;;;7.63;5.27;;;;;;;;;;4977198;28;20233;-76
2023/08/01 03:03:41;;;;;;;8.37;5.67;;;;;;;;;;5022627;28;20182;-77
2023/08/01 03:06:08;;;;;;;6.90;4.93;;;;;;;;;;4997113;28;20275;-77
2023/08/01 03:08:34;;;;;;;7.00;5.10;;;;;;;;;;4994466;28;20214;-78
2023/08/01 03:11:00;;;;;;;7.87;4.90;;;;;;;;;;5007443;28;20181;-77
2023/08/01 03:13:26;;;;;;;9.03;5.57;;;;;;;;;;4985368;28;20688;-77
2023/08/01 03:15:53;;;;;;;9.40;5.50;;;;;;;;;;5006315;28;20218;-76
2023/08/01 03:18:19;;;;;;;6.63;5.20;;;;;;;;;;5009068;28;20245;-77
2023/08/01 03:20:45;;;;;;;6.63;5.00;;;;;;;;;;5010700;28;20187;-77
2023/08/01 03:23:11;;;;;;;8.10;5.07;;;;;;;;;;5009792;28;20229;-77
2023/08/01 03:25:37;;;;;;;8.63;5.10;;;;;;;;;;5010678;28;20183;-76
2023/08/01 03:28:04;;;;;;;7.60;5.50;;;;;;;;;;5022909;28;20202;-76
2023/08/01 03:30:31;;;;;;;8.83;5.00;;;;;;;;;;5015725;28;20186;-77
2023/08/01 03:32:58;;;;;;;8.33;5.00;;;;;;;;;;5009919;28;20641;-77
2023/08/01 03:35:24;;;;;;;8.27;5.30;;;;;;;;;;5000824;28;20218;-77
2023/08/01 03:37:51;;;;;;;8.60;5.10;;;;;;;;;;5009759;28;20206;-76
2023/08/01 03:40:17;;;;;;;9.10;5.33;;;;;;;;;;5001980;28;20736;-76
2023/08/01 03:42:44;;;;;;;6.07;5.23;;;;;;;;;;5015860;28;20209;-77
2023/08/01 03:45:11;;;;;;;7.00;5.03;;;;;;;;;;5017529;28;20217;-76
2023/08/01 03:47:37;;;;;;;8.90;5.23;;;;;;;;;;5023074;28;20233;-76
2023/08/01 03:50:03;;;;;;;8.10;5.40;;;;;;;;;;5003023;28;20190;-77
2023/08/01 03:52:29;;;;;;;8.83;5.10;;;;;;;;;;5018986;28;20183;-77
2023/08/01 03:54:56;;;;;;;8.53;5.30;;;;;;;;;;5020128;28;20224;-77
2023/08/01 03:57:22;;;;;;;6.83;4.83;;;;;;;;;;4999556;28;20288;-77
2023/08/01 03:59:49;;;;;;;10.10;5.17;;;;;;;;;;4975987;28;20194;-77
2023/08/01 04:02:15;;;;;;;10.77;5.60;;;;;;;;;;5023146;28;20186;-77
2023/08/01 04:04:42;;;;;;;7.67;5.30;;;;;;;;;;5003697;28;20183;-76
2023/08/01 04:07:08;;;;;;;8.57;5.37;;;;;;;;;;5001675;28;20300;-77
2023/08/01 04:09:34;;;;;;;9.03;5.50;;;;;;;;;;5019341;28;20289;-77
2023/08/01 04:12:00;;;;;;;7.47;5.10;;;;;;;;;;4992901;28;20548;-77
2023/08/01 04:14:27;;;;;;;8.70;5.60;;;;;;;;;;5001530;28;20558;-77
2023/08/01 04:16:53;;;;;;;7.47;5.17;;;;;;;;;;5026878;28;20202;-77
2023/08/01 04:19:19;;;;;;;9.80;5.17;;;;;;;;;;5024699;28;20687;-77
2023/08/01 04:21:45;;;;;;;7.47;5.33;;;;;;;;;;5021093;28;20598;-76
2023/08/01 04:24:11;;;;;;;8.77;5.30;;;;;;;;;;5021162;28;20186;-77
2023/08/01 04:26:38;;;;;;;9.33;5.17;;;;;;;;;;4999322;28;20194;-76
2023/08/01 04:29:04;;;;;;;9.83;4.97;;;;;;;;;;5010943;28;20724;-77
2023/08/01 04:31:30;;;;;;;7.57;5.03;;;;;;;;;;5018637;28;20186;-77
2023/08/01 04:33:56;;;;;;;6.33;4.97;;;;;;;;;;5027141;28;20210;-78
2023/08/01 04:36:23;;;;;;;9.57;4.87;;;;;;;;;;5012020;28;20810;-78
2023/08/01 04:38:49;;;;;;;11.10;5.00;;;;;;;;;;5022821;28;20270;-77
2023/08/01 04:41:15;;;;;;;7.90;5.20;;;;;;;;;;4992538;28;20244;-77
2023/08/01 04:43:41;;;;;;;8.40;4.83;;;;;;;;;;5031321;28;20174;-77
2023/08/01 04:46:07;;;;;;;9.17;5.30;;;;;;;;;;5013048;28;20178;-76
2023/08/01 04:48:33;;;;;;;7.73;5.37;;;;;;;;;;4998337;28;20226;-76
2023/08/01 04:50:59;;;;;;;7.10;4.70;;;;;;;;;;5023634;28;20637;-76
2023/08/01 04:53:25;;;;;;;8.87;5.50;;;;;;;;;;5009251;28;20237;-77
2023/08/01 04:55:51;;;;;;;6.90;5.10;;;;;;;;;;5007142;28;20712;-76
2023/08/01 04:58:18;;;;;;;9.03;5.50;;;;;;;;;;5010036;28;20760;-77
2023/08/01 05:00:44;;;;;;;9.63;4.93;;;;;;;;;;5016667;28;20182;-76
2023/08/01 05:03:10;;;;;;;10.80;5.10;;;;;;;;;;5029927;28;20182;-75
2023/08/01 05:05:36;;;;;;;6.50;4.93;;;;;;;;;;4982232;28;20345;-77
2023/08/01 05:08:03;;;;;;;9.10;5.50;;;;;;;;;;5038120;22;20226;-77
2023/08/01 05:10:29;;;;;;;10.33;5.40;;;;;;;;;;5031426;28;20657;-76
2023/08/01 05:12:55;;;;;;;12.20;5.37;;;;;;;;;;5031874;28;20186;-77
2023/08/01 05:15:21;;;;;;;9.73;5.60;;;;;;;;;;5031883;28;20287;-77
2023/08/01 05:17:47;;;;;;;10.53;5.03;;;;;;;;;;5027083;28;20214;-77
2023/08/01 05:20:13;;;;;;;8.87;5.13;;;;;;;;;;5015635;28;20195;-77
2023/08/01 05:22:39;;;;;;;7.47;4.73;;;;;;;;;;5014060;28;20658;-77
2023/08/01 05:25:06;;;;;;;7.67;4.97;;;;;;;;;;5021821;28;20183;-77
2023/08/01 05:27:33;;;;;;;7.67;5.00;;;;;;;;;;5015811;28;20202;-77
2023/08/01 05:30:00;;;;;;;6.83;4.83;;;;;;;;;;5014681;28;20195;-76
2023/08/01 05:32:26;;;;;;;6.87;4.70;;;;;;;;;;5015889;28;20190;-76
2023/08/01 05:34:52;;;;;;;6.07;4.73;;;;;;;;;;5013280;28;20207;-76
2023/08/01 05:37:18;;;;;;;7.07;5.00;;;;;;;;;;5022432;28;20203;-76
2023/08/01 05:39:44;;;;;;;6.27;4.80;;;;;;;;;;5014494;28;20180;-76
2023/08/01 05:42:10;;;;;;;6.53;4.60;;;;;;;;;;5021368;28;20175;-76
2023/08/01 05:44:36;;;;;;;6.37;4.47;;;;;;;;;;5021807;28;20203;-76
2023/08/01 05:47:03;;;;;;;6.43;4.30;;;;;;;;;;5013002;28;20257;-76
2023/08/01 05:49:29;;;;;;;10.80;4.80;;;;;;;;;;5017395;28;20600;-76
2023/08/01 05:51:56;;;;;;;7.30;4.80;;;;;;;;;;5024898;28;20191;-76
2023/08/01 05:54:22;;;;;;;5.53;4.83;;;;;;;;;;5022525;28;20203;-76
2023/08/01 05:56:48;;;;;;;7.37;5.17;;;;;;;;;;5026487;28;20203;-76
2023/08/01 05:59:14;;;;;;;8.90;5.43;;;;;;;;;;5027089;28;20198;-76
2023/08/01 06:01:40;;;;;;;7.40;5.57;;;;;;;;;;5019589;28;20262;-75
2023/08/01 06:04:06;;;;;;;7.87;5.67;;;;;;;;;;5014556;28;20201;-77
2023/08/01 06:06:32;;;;;;;9.37;6.10;;;;;;;;;;5028332;28;20193;-78
2023/08/01 06:08:58;;;;;;;7.40;5.57;;;;;;;;;;5019907;28;20190;-77
2023/08/01 06:11:26;;;;;;;8.77;5.93;;;;;;;;;;5031492;28;20187;-78
2023/08/01 06:13:52;;;;;;;8.97;6.10;;;;;;;;;;5027044;28;20183;-78
2023/08/01 06:16:18;;;;;;;7.27;6.20;;;;;;;;;;5014379;28;20198;-78
2023/08/01 06:18:45;;;;;;;8.83;6.30;;;;;;;;;;5019077;28;20239;-78
2023/08/01 06:21:11;;;;;;;8.83;6.07;;;;;;;;;;5014393;28;20191;-78
2023/08/01 06:23:37;;;;;;;8.93;6.13;;;;;;;;;;5027792;28;20186;-78
2023/08/01 06:26:03;;;;;;;8.20;5.93;;;;;;;;;;5013847;28;20274;-78
2023/08/01 06:28:30;;;;;;;7.97;5.90;;;;;;;;;;5021568;28;20208;-78
2023/08/01 06:30:56;;;;;;;8.33;5.63;;;;;;;;;;5024166;28;20657;-77
2023/08/01 06:33:23;;;;;;;7.90;5.40;;;;;;;;;;5030327;28;20182;-77
2023/08/01 06:35:49;;;;;;;9.93;5.73;;;;;;;;;;5030243;28;20210;-78
2023/08/01 06:38:16;;;;;;;7.67;5.40;;;;;;;;;;5030147;28;20252;-78
2023/08/01 06:40:42;;;;;;;7.83;5.70;;;;;;;;;;5023256;28;20186;-78
2023/08/01 06:43:08;;;;;;;7.93;4.70;;;;;;;;;;5022402;28;20195;-78
2023/08/01 06:45:34;;;;;;;8.20;5.53;;;;;;;;;;5029140;28;20213;-78
2023/08/01 06:48:00;;;;;;;8.47;5.40;;;;;;;;;;5012416;28;20237;-78
2023/08/01 06:50:27;;;;;;;8.00;5.50;;;;;;;;;;5015118;28;20345;-78
2023/08/01 06:52:53;;;;;;;7.33;5.40;;;;;;;;;;5030141;28;20858;-77
2023/08/01 06:55:19;;;;;;;9.70;5.73;;;;;;;;;;5029815;28;20217;-78
2023/08/01 06:57:45;;;;;;;6.43;5.00;;;;;;;;;;5028760;28;20217;-77
2023/08/01 07:00:11;;;;;;;7.30;5.30;;;;;;;;;;5029776;28;20746;-78
2023/08/01 07:02:37;;;;;;;6.37;4.90;;;;;;;;;;5005908;28;20648;-78
2023/08/01 07:05:04;;;;;;;9.97;5.67;;;;;;;;;;5022439;28;20186;-78
2023/08/01 07:07:30;;;;;;;7.23;5.23;;;;;;;;;;5022540;28;20626;-78
2023/08/01 07:09:56;;;;;;;8.73;5.27;;;;;;;;;;5028592;28;20182;-77
2023/08/01 07:12:23;;;;;;;7.07;4.73;;;;;;;;;;5021439;28;20197;-77
2023/08/01 07:14:49;;;;;;;6.33;4.60;;;;;;;;;;5025971;28;20203;-78
2023/08/01 07:17:15;;;;;;;6.20;4.40;;;;;;;;;;5019382;28;20214;-77
2023/08/01 07:19:41;;;;;;;7.63;4.40;;;;;;;;;;5016498;28;20198;-78
2023/08/01 07:22:07;;;;;;;6.77;4.47;;;;;;;;;;5029311;28;20260;-78
2023/08/01 07:24:33;;;;;;;5.33;4.70;;;;;;;;;;5029607;28;20183;-78
2023/08/01 07:26:59;;;;;;;6.03;4.33;;;;;;;;;;5023721;28;20215;-78
2023/08/01 07:29:25;;;;;;;7.27;4.90;;;;;;;;;;5020658;28;20191;-78
2023/08/01 07:32:00;;;;;;;7.23;4.60;;;;;;;;;;5022998;28;20182;-78
2023/08/01 07:34:26;;;;;;;6.63;4.87;;;;;;;;;;5028433;28;21673;-78
2023/08/01 07:36:53;;;;;;;6.77;4.53;;;;;;;;;;5019428;28;20682;-78
2023/08/01 07:39:19;;;;;;;7.57;4.90;;;;;;;;;;5021202;28;20180;-78
2023/08/01 07:41:45;;;;;;;6.47;4.57;;;;;;;;;;5029201;28;20182;-78
2023/08/01 07:44:11;;;;;;;6.53;4.57;;;;;;;;;;5022897;28;20597;-77
2023/08/01 07:46:37;;;;;;;5.83;4.40;;;;;;;;;;5019936;28;20261;-77
2023/08/01 07:49:03;;;;;;;5.43;4.13;;;;;;;;;;5012225;28;20242;-78
2023/08/01 07:51:30;;;;;;;6.77;4.17;;;;;;;;;;5019612;28;20186;-78
2023/08/01 07:53:57;;;;;;;6.10;3.80;;;;;;;;;;5003645;28;20202;-78
2023/08/01 07:56:23;;;;;;;4.90;4.10;;;;;;;;;;5014109;28;20191;-78
2023/08/01 07:58:49;;;;;;;5.67;4.03;;;;;;;;;;5022890;28;20217;-78
2023/08/01 08:01:15;;;;;;;5.10;3.70;;;;;;;;;;5029823;28;20214;-78
2023/08/01 08:03:41;;;;;;;4.50;3.50;;;;;;;;;;5025127;28;20651;-78
2023/08/01 08:06:08;;;;;;;5.80;3.60;;;;;;;;;;5012230;28;20565;-78
2023/08/01 08:08:34;;;;;;;6.63;4.00;;;;;;;;;;5022776;28;20218;-78
2023/08/01 08:11:01;;;;;;;5.07;3.50;;;;;;;;;;5011321;28;20244;-78
2023/08/01 08:13:27;;;;;;;4.00;3.57;;;;;;;;;;5022682;28;20220;-78
2023/08/01 08:15:56;;;;;;;3.97;3.50;;;;;;;;;;5029915;28;20313;-78
2023/08/01 08:18:22;;;;;;;5.03;3.33;;;;;;;;;;5025169;28;20555;-78
2023/08/01 08:20:48;;;;;;;3.93;3.23;;;;;;;;;;5027004;28;20183;-78
2023/08/01 08:23:15;;;;;;;4.30;3.17;;;;;;;;;;5026942;28;20187;-78
2023/08/01 08:25:41;;;;;;;4.57;3.30;;;;;;;;;;5023058;28;20186;-79
2023/08/01 08:28:08;;;;;;;7.90;3.47;;;;;;;;;;5029149;28;20210;-79
2023/08/01 08:30:35;;;;;;;3.97;1.80;;;;;;;;;;5019120;28;20186;-79
2023/08/01 08:33:04;;;;;;;2.83;1.50;;;;;;;;;;5026067;28;20191;-79
2023/08/01 08:35:36;;;;;;;2.90;1.77;;;;;;;;;;5022646;28;20259;-79
2023/08/01 08:38:03;;;;;;;2.03;1.60;;;;;;;;;;5014794;28;20211;-79
2023/08/01 08:40:30;;;;;;;1.73;1.43;;;;;;;;;;5031735;28;20179;-78
2023/08/01 08:42:57;;;;;;;2.17;1.70;;;;;;;;;;5026139;28;20182;-79
2023/08/01 08:45:24;;;;;;;1.73;1.50;;;;;;;;;;5019007;28;20270;-78
2023/08/01 08:47:55;;;;;;;2.50;1.60;;;;;;;;;;5031716;28;20207;-78
2023/08/01 08:50:21;;;;;;;1.87;1.57;;;;;;;;;;5024256;28;20187;-79
2023/08/01 08:52:48;;;;;;;1.60;1.50;;;;;;;;;;5032582;28;20261;-78
2023/08/01 08:55:14;;;;;;;2.17;1.60;;;;;;;;;;5031048;28;20636;-78
2023/08/01 08:57:41;;;;;;;1.97;1.50;;;;;;;;;;5029043;28;20199;-78
2023/08/01 09:00:07;;;;;;;3.27;1.70;;;;;;;;;;5029055;28;20183;-78
2023/08/01 09:02:34;;;;;;;1.90;1.60;;;;;;;;;;5021823;28;20178;-78
2023/08/01 09:05:00;;;;;;;1.60;1.47;;;;;;;;;;5022255;28;20191;-78
2023/08/01 09:07:30;;;;;;;1.67;1.57;;;;;;;;;;5029443;28;20337;-79
2023/08/01 09:09:56;;;;;;;1.60;1.47;;;;;;;;;;5014068;28;20191;-79
2023/08/01 09:12:22;;;;;;;1.40;1.30;;;;;;;;;;5016041;28;20270;-79
2023/08/01 09:14:50;;;;;;;1.33;1.23;;;;;;;;;;5015497;28;20214;-78
2023/08/01 09:17:18;;;;;;;1.53;1.40;;;;;;;;;;5017054;28;20207;-78
2023/08/01 09:19:44;;;;;;;2.43;1.17;;;;;;;;;;5016038;28;20245;-78
2023/08/01 09:22:11;;;;;;;1.43;1.30;;;;;;;;;;5022137;28;20190;-78
2023/08/01 09:24:38;;;;;;;1.43;1.33;;;;;;;;;;5025452;28;20241;-78
2023/08/01 09:27:04;;;;;;;2.37;1.97;;;;;;;;;;5025410;28;20202;-78
2023/08/01 09:29:32;;;;;;;2.03;1.70;;;;;;;;;;5016555;28;20188;-78
2023/08/01 09:31:58;;;;;;;1.83;1.60;;;;;;;;;;5026882;28;20217;-78
2023/08/01 09:34:26;;;;;;;2.23;1.70;;;;;;;;;;5017150;28;20233;-78
2023/08/01 09:36:57;;;;;;;3.23;1.90;;;;;;;;;;5020401;28;20282;-78
2023/08/01 09:39:24;;;;;;;2.10;1.90;;;;;;;;;;5028571;28;20278;-78
2023/08/01 09:41:57;;;;;;;2.37;1.97;;;;;;;;;;5013588;28;20187;-78
2023/08/01 09:44:23;;;;;;;2.20;2.00;;;;;;;;;;5017186;28;20238;-78
2023/08/01 09:47:17;;;;;;;3.57;2.30;;;;;;;;;;5027682;28;20207;-78
2023/08/01 09:49:53;;;;;;;3.90;2.70;;;;;;;;;;5022830;28;20230;-78
2023/08/01 09:52:30;;;;;;;4.20;2.20;;;;;;;;;;5028029;28;20209;-78
2023/08/01 09:54:56;;;;;;;2.30;1.60;;;;;;;;;;5020028;28;20214;-78
2023/08/01 09:57:22;;;;;;;2.73;1.83;;;;;;;;;;5016313;28;20211;-78
2023/08/01 09:59:49;;;;;;;3.33;1.77;;;;;;;;;;5027481;28;20183;-78
2023/08/01 10:02:16;;;;;;;1.50;1.40;;;;;;;;;;5015088;28;20266;-78
2023/08/01 10:04:42;;;;;;;1.73;1.60;;;;;;;;;;5029832;28;20273;-78
2023/08/01 10:07:12;;;;;;;1.40;1.30;;;;;;;;;;5016093;28;20659;-78
2023/08/01 10:09:38;;;;;;;1.47;1.37;;;;;;;;;;5021005;28;20183;-78
2023/08/01 10:12:05;;;;;;;2.70;1.80;;;;;;;;;;5020705;28;20579;-79
2023/08/01 10:14:36;;;;;;;1.97;1.50;;;;;;;;;;5016026;28;20221;-78
2023/08/01 10:17:03;;;;;;;1.70;1.20;;;;;;;;;;5023934;28;20285;-78
2023/08/01 10:19:32;;;;;;;2.33;1.10;;;;;;;;;;5016215;28;20182;-78
2023/08/01 10:21:59;;;;;;;1.30;1.20;;;;;;;;;;5000972;28;20199;-78
2023/08/01 10:24:26;;;;;;;2.37;1.20;;;;;;;;;;5027618;28;20186;-78
2023/08/01 10:26:52;;;;;;;1.93;1.20;;;;;;;;;;5013500;28;20210;-78
2023/08/01 10:29:18;;;;;;;1.83;1.30;;;;;;;;;;5022559;28;20598;-78
2023/08/01 10:31:56;;;;;;;2.70;1.33;;;;;;;;;;5024941;28;20236;-79
2023/08/01 10:34:22;;;;;;;1.37;1.00;;;;;;;;;;5016081;28;20580;-79
2023/08/01 10:36:55;;;;;;;1.50;1.20;;;;;;;;;;5020335;28;20298;-79
2023/08/01 10:39:23;;;;;;;1.30;1.20;;;;;;;;;;5022237;28;20191;-78
2023/08/01 10:41:56;;;;;;;1.53;1.10;;;;;;;;;;5030207;28;20216;-78
2023/08/01 10:44:23;;;;;;;2.40;1.20;;;;;;;;;;5024376;28;20301;-78
2023/08/01 10:46:50;;;;;;;1.30;0.97;;;;;;;;;;5024352;28;20206;-79
2023/08/01 10:49:16;;;;;;;1.87;1.00;;;;;;;;;;5022583;28;20673;-79
2023/08/01 10:51:43;;;;;;;1.53;1.30;;;;;;;;;;5016955;28;20269;-79
2023/08/01 10:54:20;;;;;;;4.83;1.37;;;;;;;;;;5023941;28;20599;-79
2023/08/01 10:56:47;;;;;;;1.63;1.20;;;;;;;;;;5020228;28;20199;-79
2023/08/01 10:59:14;;;;;;;1.10;1.00;;;;;;;;;;5020786;28;20190;-79
2023/08/01 11:01:46;;;;;;;1.20;1.10;;;;;;;;;;5023770;28;20183;-80
2023/08/01 11:04:16;;;;;;;3.53;1.33;;;;;;;;;;5015720;28;20211;-78
2023/08/01 11:09:36;;;;;;;1.50;1.10;;;;;;;;;;4988286;28;20651;-75
2023/08/01 11:12:02;;;;;;;2.10;1.20;;;;;;;;;;4990162;28;20270;-75
2023/08/01 11:14:29;;;;;;;1.60;1.13;;;;;;;;;;4983615;28;20216;-75
2023/08/01 11:16:56;;;;;;;1.60;1.33;;;;;;;;;;4968133;28;20220;-75
2023/08/01 11:19:27;;;;;;;4.40;1.30;;;;;;;;;;4964989;28;20192;-77
2023/08/01 11:21:56;;;;;;;1.77;1.30;;;;;;;;;;4961759;28;20292;-77
2023/08/01 11:24:22;;;;;;;1.73;1.23;;;;;;;;;;4980866;28;20657;-77
2023/08/01 11:26:49;;;;;;;1.97;1.53;;;;;;;;;;4970464;28;20196;-76
2023/08/01 11:29:15;;;;;;;2.33;1.30;;;;;;;;;;4970148;28;20198;-76
2023/08/01 11:31:52;;;;;;;1.53;1.20;;;;;;;;;;4972449;28;20187;-76
2023/08/01 11:34:18;;;;;;;1.20;1.07;;;;;;;;;;4989925;28;20639;-76
2023/08/01 11:36:45;;;;;;;1.77;1.27;;;;;;;;;;4989728;28;20664;-76
2023/08/01 11:39:12;;;;;;;1.83;1.20;;;;;;;;;;4972636;28;20259;-76
2023/08/01 11:41:39;;;;;;;2.43;1.50;;;;;;;;;;4983166;28;20298;-76
2023/08/01 11:44:06;;;;;;;2.00;1.40;;;;;;;;;;4990097;28;20216;-76
2023/08/01 11:46:33;;;;;;;1.30;1.10;;;;;;;;;;4972237;28;20183;-76
2023/08/01 11:49:00;;;;;;;1.67;1.30;;;;;;;;;;4961255;28;20209;-76
2023/08/01 11:51:26;;;;;;;1.63;1.20;;;;;;;;;;4968199;28;20196;-76
2023/08/01 11:54:00;;;;;;;2.00;1.37;;;;;;;;;;4994379;28;20195;-76
2023/08/01 11:56:26;;;;;;;2.10;1.40;;;;;;;;;;4994146;28;20678;-76
2023/08/01 11:58:52;;;;;;;1.77;1.20;;;;;;;;;;4987717;28;20890;-75
2023/08/01 12:01:19;;;;;;;1.37;1.27;;;;;;;;;;4969714;28;20205;-76
2023/08/01 12:03:45;;;;;;;3.27;1.20;;;;;;;;;;4990815;28;20184;-76
2023/08/01 12:06:13;;;;;;;2.17;1.20;;;;;;;;;;4990280;28;20186;-76
2023/08/01 12:08:39;;;;;;;2.17;1.77;;;;;;;;;;4993342;28;20219;-76
2023/08/01 12:11:05;;;;;;;3.13;1.40;;;;;;;;;;4993876;28;20180;-76
2023/08/01 12:13:32;;;;;;;4.10;1.43;;;;;;;;;;4991950;28;20178;-76
2023/08/01 12:15:58;;;;;;;2.60;1.40;;;;;;;;;;4976515;28;20258;-76
2023/08/01 12:18:29;;;;;;;2.47;1.63;;;;;;;;;;4978040;28;20691;-76
2023/08/01 12:20:56;;;;;;;2.83;1.60;;;;;;;;;;4970745;28;20232;-76
2023/08/01 12:23:22;;;;;;;3.37;1.43;;;;;;;;;;4974021;28;20263;-76
2023/08/01 12:25:49;;;;;;;4.23;1.60;;;;;;;;;;4989049;28;20282;-76
2023/08/01 12:28:15;;;;;;;2.30;1.30;;;;;;;;;;4975528;28;20591;-76
2023/08/01 12:30:42;;;;;;;2.87;1.40;;;;;;;;;;4993166;28;20281;-76
2023/08/01 12:33:09;;;;;;;1.50;1.40;;;;;;;;;;4979415;28;20199;-76
2023/08/01 12:35:39;;;;;;;5.00;1.40;;;;;;;;;;4991602;28;20294;-76
2023/08/01 12:38:05;;;;;;;1.53;1.40;;;;;;;;;;4975785;28;20758;-76
2023/08/01 12:40:31;;;;;;;2.63;1.60;;;;;;;;;;4975452;28;20191;-76
2023/08/01 12:42:57;;;;;;;2.33;1.50;;;;;;;;;;4988119;28;20251;-76
2023/08/01 12:45:23;;;;;;;1.50;1.40;;;;;;;;;;4984806;28;20206;-76
2023/08/01 12:47:49;;;;;;;1.90;1.50;;;;;;;;;;4975391;28;20218;-76
2023/08/01 12:50:16;;;;;;;2.10;1.47;;;;;;;;;;4992752;28;20195;-76
2023/08/01 12:52:42;;;;;;;1.63;1.50;;;;;;;;;;4975422;28;20558;-77
2023/08/01 12:55:08;;;;;;;2.80;1.70;;;;;;;;;;4992861;28;20589;-76
2023/08/01 12:57:34;;;;;;;1.50;1.30;;;;;;;;;;4997920;28;20298;-76
2023/08/01 13:00:01;;;;;;;2.20;1.80;;;;;;;;;;4992934;28;20297;-76
2023/08/01 13:02:28;;;;;;;3.27;1.60;;;;;;;;;;4991338;28;20191;-76
2023/08/01 13:04:54;;;;;;;2.17;1.50;;;;;;;;;;4988524;28;20719;-76
2023/08/01 13:07:20;;;;;;;1.83;1.60;;;;;;;;;;4970742;28;20214;-76
2023/08/01 13:09:46;;;;;;;2.80;1.70;;;;;;;;;;4989531;28;20560;-76
2023/08/01 13:12:12;;;;;;;2.40;1.70;;;;;;;;;;4989079;28;20207;-76
2023/08/01 13:14:38;;;;;;;2.40;1.50;;;;;;;;;;4991350;28;20295;-76
2023/08/01 13:17:04;;;;;;;1.70;1.60;;;;;;;;;;4937404;28;20193;-76
2023/08/01 13:19:30;;;;;;;2.03;1.63;;;;;;;;;;4974211;28;20196;-76
2023/08/01 13:21:57;;;;;;;2.50;1.70;;;;;;;;;;4992260;28;20188;-76
2023/08/01 13:24:23;;;;;;;2.50;1.63;;;;;;;;;;4974769;28;20195;-76
2023/08/01 13:26:49;;;;;;;2.73;1.50;;;;;;;;;;4971518;28;20208;-76
2023/08/01 13:29:15;;;;;;;2.93;1.70;;;;;;;;;;4989502;28;20190;-76
2023/08/01 13:31:42;;;;;;;3.10;1.53;;;;;;;;;;4992264;28;20347;-76
2023/08/01 13:34:08;;;;;;;2.10;1.40;;;;;;;;;;4985682;28;20623;-76
2023/08/01 13:36:34;;;;;;;2.90;1.47;;;;;;;;;;4991405;28;20199;-76
2023/08/01 13:39:00;;;;;;;2.77;1.63;;;;;;;;;;4974720;28;20705;-76
2023/08/01 13:41:26;;;;;;;2.53;1.40;;;;;;;;;;4985011;28;20598;-76
2023/08/01 13:43:53;;;;;;;2.33;1.47;;;;;;;;;;4996766;28;20216;-77
2023/08/01 13:46:19;;;;;;;2.10;1.60;;;;;;;;;;4973992;28;20196;-77
2023/08/01 13:48:46;;;;;;;2.60;1.50;;;;;;;;;;4974389;28;20199;-76
2023/08/01 13:51:12;;;;;;;2.30;1.70;;;;;;;;;;4991422;28;20199;-76
2023/08/01 13:53:40;;;;;;;1.97;1.60;;;;;;;;;;4991736;28;20182;-76
2023/08/01 13:56:10;;;;;;;2.47;1.80;;;;;;;;;;4991824;28;20670;-77
2023/08/01 13:58:38;;;;;;;3.23;2.00;;;;;;;;;;4991725;28;20196;-77
2023/08/01 14:01:09;;;;;;;1.70;1.60;;;;;;;;;;4994691;28;20189;-77
2023/08/01 14:03:39;;;;;;;2.33;1.60;;;;;;;;;;4974194;28;20223;-76
2023/08/01 14:06:05;;;;;;;2.47;1.53;;;;;;;;;;4974172;28;20215;-77
2023/08/01 14:08:31;;;;;;;1.87;1.60;;;;;;;;;;4980754;28;20234;-77
2023/08/01 14:10:58;;;;;;;2.03;1.40;;;;;;;;;;4991863;28;20214;-77
2023/08/01 14:13:24;;;;;;;2.63;1.80;;;;;;;;;;4973975;28;20179;-77
2023/08/01 14:15:51;;;;;;;2.27;1.60;;;;;;;;;;4974330;28;20223;-77
2023/08/01 14:18:17;;;;;;;2.40;1.70;;;;;;;;;;4971356;28;20204;-77
2023/08/01 14:20:43;;;;;;;3.63;1.50;;;;;;;;;;4973829;28;20219;-77
2023/08/01 14:23:09;;;;;;;2.70;1.63;;;;;;;;;;4991463;28;20683;-77
2023/08/01 14:25:35;;;;;;;1.90;1.70;;;;;;;;;;4991127;28;20260;-77
2023/08/01 14:28:02;;;;;;;2.00;1.57;;;;;;;;;;4990974;28;20245;-77
2023/08/01 14:30:28;;;;;;;1.90;1.70;;;;;;;;;;4972439;28;20197;-77
2023/08/01 14:33:05;;;;;;;3.43;1.90;;;;;;;;;;4990905;28;20242;-77
2023/08/01 14:35:31;;;;;;;3.53;1.80;;;;;;;;;;4956689;28;20244;-77
2023/08/01 14:37:57;;;;;;;2.30;1.80;;;;;;;;;;5001721;28;20254;-77
2023/08/01 14:40:24;;;;;;;3.70;1.80;;;;;;;;;;4990577;28;20190;-76
2023/08/01 14:42:50;;;;;;;2.47;1.60;;;;;;;;;;5002244;28;20187;-76